Terminal Aerodrome Forecast
Issued by NWS

Home | Current Version | Previous Version | Text Only | Print | Product List | Glossary On
Versions: 1 2 3 4 5 6 7 8 9 10 11 12 13 14 15
976
FTUS42 KMLB 221733
TAFTIX
TAF
KTIX 221733Z 2218/2318 14010G16KT 5SM -RA BR SCT015 OVC035
      TEMPO 2218/2222 2SM SHRA BR OVC015
     FM230200 09005KT P6SM VCSH BKN015 OVC030
     FM230600 03006KT P6SM BKN010 OVC020=

USA.gov is the U.S. government's official web portal to all federal, state and local government web resources and services.